createdAt,value
2017-07-23T00:01:12.344Z,17.90
2017-07-23T00:03:41.023Z,17.90
2017-07-23T00:06:09.611Z,17.90
2017-07-23T00:08:38.606Z,17.90
2017-07-23T00:11:07.070Z,17.90
2017-07-23T00:13:35.652Z,17.80
2017-07-23T00:16:05.406Z,17.80
2017-07-23T00:18:36.426Z,17.70
2017-07-23T00:21:05.270Z,17.60
2017-07-23T00:23:33.789Z,17.60
2017-07-23T00:31:01.961Z,17.80
2017-07-23T00:33:30.550Z,17.80
2017-07-23T00:35:59.408Z,17.80
2017-07-23T00:40:58.466Z,17.90
2017-07-23T00:45:56.798Z,17.90
2017-07-23T00:48:26.793Z,17.80
2017-07-23T00:50:56.172Z,17.80
2017-07-23T00:53:25.062Z,17.80
2017-07-23T00:55:53.700Z,17.70
2017-07-23T00:58:22.425Z,17.70
2017-07-23T01:00:51.274Z,17.60
2017-07-23T01:03:20.488Z,17.60
2017-07-23T01:05:49.797Z,17.50
2017-07-23T01:08:18.461Z,17.50
2017-07-23T01:10:48.207Z,17.40
2017-07-23T01:13:17.676Z,17.30
2017-07-23T01:15:47.366Z,17.30
2017-07-23T01:18:16.339Z,17.20
2017-07-23T01:23:15.297Z,17.10
2017-07-23T01:25:44.253Z,17.10
2017-07-23T01:28:13.901Z,17.00
2017-07-23T01:30:43.643Z,16.90
2017-07-23T01:33:12.693Z,16.90
2017-07-23T01:38:10.699Z,16.80
2017-07-23T01:43:09.884Z,16.70
2017-07-23T01:45:38.546Z,16.60
2017-07-23T01:48:07.837Z,16.60
2017-07-23T01:53:07.546Z,16.50
2017-07-23T01:55:35.465Z,16.50
2017-07-23T01:58:04.068Z,16.50
2017-07-23T02:03:03.709Z,16.60
2017-07-23T02:10:32.615Z,16.70
2017-07-23T02:13:02.582Z,16.80
2017-07-23T02:15:31.678Z,16.90
2017-07-23T02:18:00.952Z,16.90
2017-07-23T02:20:31.093Z,16.90
2017-07-23T02:22:59.817Z,16.90
2017-07-23T02:25:29.053Z,16.80
2017-07-23T02:27:58.449Z,16.90
2017-07-23T02:30:27.498Z,16.90
2017-07-23T02:32:57.772Z,17.00
2017-07-23T02:35:27.758Z,17.00
2017-07-23T02:37:57.048Z,17.00
2017-07-23T02:40:26.979Z,17.00
2017-07-23T02:42:55.851Z,16.90
2017-07-23T02:45:24.346Z,16.80
2017-07-23T02:47:54.644Z,16.80
2017-07-23T02:50:23.621Z,16.80
2017-07-23T02:52:52.332Z,16.80
2017-07-23T02:55:21.456Z,16.80
2017-07-23T02:57:55.011Z,16.80
2017-07-23T03:00:24.834Z,16.80
2017-07-23T03:02:53.717Z,16.70
2017-07-23T03:05:22.571Z,16.70
2017-07-23T03:07:51.650Z,16.80
2017-07-23T03:10:21.050Z,16.70
2017-07-23T03:12:49.598Z,16.60
2017-07-23T03:15:19.614Z,16.70
2017-07-23T03:17:55.398Z,16.70
2017-07-23T03:20:27.438Z,16.60
2017-07-23T03:22:55.655Z,16.60
2017-07-23T03:25:25.035Z,16.60
2017-07-23T03:27:55.032Z,16.70
2017-07-23T03:30:24.469Z,16.60
2017-07-23T03:40:22.370Z,16.70
2017-07-23T03:42:52.163Z,16.70
2017-07-23T03:45:21.454Z,16.60
2017-07-23T03:47:50.882Z,16.60
2017-07-23T03:50:19.963Z,16.70
2017-07-23T03:52:48.617Z,16.60
2017-07-23T03:55:17.683Z,16.60
2017-07-23T04:00:16.707Z,16.50
2017-07-23T04:02:45.761Z,16.40
2017-07-23T04:05:15.039Z,16.40
2017-07-23T04:07:43.698Z,16.30
2017-07-23T04:10:12.928Z,16.40
2017-07-23T04:12:42.396Z,16.40
2017-07-23T04:15:11.439Z,16.50
2017-07-23T04:17:40.657Z,16.60
2017-07-23T04:20:10.260Z,16.70
2017-07-23T04:22:38.779Z,16.90
2017-07-23T04:25:07.682Z,17.10
2017-07-23T04:27:38.102Z,17.20
2017-07-23T04:30:06.638Z,17.30
2017-07-23T04:32:35.145Z,17.50
2017-07-23T04:37:33.104Z,17.50
2017-07-23T04:40:02.392Z,17.60
2017-07-23T04:42:31.333Z,17.80
2017-07-23T04:44:59.779Z,17.80
2017-07-23T04:47:29.745Z,17.70
2017-07-23T04:49:58.690Z,17.60
2017-07-23T04:52:27.217Z,17.40
2017-07-23T04:54:55.704Z,17.30
2017-07-23T04:57:25.295Z,17.10
2017-07-23T04:59:53.978Z,17.10
2017-07-23T05:02:23.326Z,17.10
2017-07-23T05:04:54.308Z,17.00
2017-07-23T05:07:30.819Z,16.90
2017-07-23T05:10:06.531Z,16.80
2017-07-23T05:12:35.641Z,16.70
2017-07-23T05:17:33.763Z,16.70
2017-07-23T05:20:02.685Z,16.80
2017-07-23T05:22:31.158Z,16.70
2017-07-23T05:25:08.283Z,16.70
2017-07-23T05:27:37.598Z,16.70
2017-07-23T05:30:08.744Z,16.70
2017-07-23T05:32:37.473Z,16.80
2017-07-23T05:35:12.554Z,16.90
2017-07-23T05:37:42.384Z,16.90
2017-07-23T05:40:18.125Z,16.90
2017-07-23T05:42:48.321Z,17.10
2017-07-23T05:45:17.990Z,17.20
2017-07-23T05:50:19.729Z,17.30
2017-07-23T05:52:49.139Z,17.40
2017-07-23T05:57:48.040Z,17.30
2017-07-23T06:00:16.929Z,17.30
2017-07-23T06:02:45.412Z,17.20
2017-07-23T06:05:14.061Z,17.10
2017-07-23T06:07:42.561Z,17.10
2017-07-23T06:10:11.441Z,17.10
2017-07-23T06:12:41.641Z,17.00
2017-07-23T06:17:40.499Z,16.90
2017-07-23T06:20:09.370Z,17.10
2017-07-23T06:22:39.666Z,17.20
2017-07-23T06:25:08.725Z,17.40
2017-07-23T06:27:39.253Z,17.60
2017-07-23T06:30:08.522Z,17.80
2017-07-23T06:32:38.788Z,17.80
2017-07-23T06:35:08.625Z,17.70
2017-07-23T06:37:38.632Z,17.90
2017-07-23T06:40:07.101Z,18.10
2017-07-23T06:42:35.966Z,18.30
2017-07-23T06:45:06.016Z,18.60
2017-07-23T06:47:34.481Z,19.10
2017-07-23T06:50:04.098Z,20.50
2017-07-23T06:52:33.167Z,21.30
2017-07-23T06:55:02.025Z,20.30
2017-07-23T06:57:31.076Z,19.70
2017-07-23T07:00:02.590Z,19.50
2017-07-23T07:02:31.138Z,19.50
2017-07-23T07:05:00.811Z,19.90
2017-07-23T07:07:29.284Z,20.20
2017-07-23T07:09:57.757Z,22.10
2017-07-23T07:12:27.296Z,23.40
2017-07-23T07:14:56.535Z,24.10
2017-07-23T07:17:25.441Z,24.60
2017-07-23T07:19:55.435Z,24.70
2017-07-23T07:22:23.925Z,24.90
2017-07-23T07:24:53.212Z,25.60
2017-07-23T07:27:22.093Z,26.00
2017-07-23T07:29:50.973Z,26.40
2017-07-23T07:32:21.046Z,25.60
2017-07-23T07:34:50.256Z,24.00
2017-07-23T07:37:18.715Z,23.40
2017-07-23T07:39:48.113Z,23.70
2017-07-23T07:42:17.381Z,24.30
2017-07-23T07:44:47.334Z,24.00
2017-07-23T07:47:16.615Z,24.30
2017-07-23T07:49:45.095Z,24.30
2017-07-23T07:54:43.078Z,25.30
2017-07-23T07:57:13.176Z,25.00
2017-07-23T07:59:43.242Z,26.00
2017-07-23T08:02:11.696Z,25.70
2017-07-23T08:04:41.606Z,24.20
2017-07-23T08:07:10.900Z,23.60
2017-07-23T08:09:40.857Z,22.90
2017-07-23T08:12:10.870Z,22.90
2017-07-23T08:14:40.528Z,22.70
2017-07-23T08:17:10.559Z,22.60
2017-07-23T08:22:09.122Z,23.20
2017-07-23T08:24:37.972Z,23.30
2017-07-23T08:27:07.456Z,23.00
2017-07-23T08:29:36.683Z,22.30
2017-07-23T08:32:06.699Z,22.20
2017-07-23T08:34:36.793Z,21.70
2017-07-23T08:37:07.682Z,21.30
2017-07-23T08:42:07.184Z,21.50
2017-07-23T08:44:36.640Z,21.50
2017-07-23T08:47:05.509Z,22.60
2017-07-23T08:49:35.379Z,22.90
2017-07-23T08:52:04.257Z,22.50
2017-07-23T08:54:32.934Z,22.70
2017-07-23T08:57:02.485Z,23.20
2017-07-23T08:59:31.793Z,23.70
2017-07-23T09:02:01.023Z,23.80
2017-07-23T09:04:30.253Z,23.60
2017-07-23T09:09:28.727Z,23.70
2017-07-23T09:14:27.023Z,23.60
2017-07-23T09:16:57.595Z,24.00
2017-07-23T09:19:26.921Z,24.70
2017-07-23T09:21:56.725Z,25.10
2017-07-23T09:24:26.692Z,25.00
2017-07-23T09:26:56.292Z,24.30
2017-07-23T09:31:55.127Z,23.40
2017-07-23T09:34:24.366Z,23.80
2017-07-23T09:36:53.211Z,24.30
2017-07-23T09:39:22.305Z,24.70
2017-07-23T09:41:51.636Z,24.50
2017-07-23T09:44:20.943Z,24.50
2017-07-23T09:46:49.398Z,24.10
2017-07-23T09:49:17.893Z,23.90
2017-07-23T09:54:16.114Z,23.60
2017-07-23T09:56:44.576Z,23.50
2017-07-23T09:59:13.469Z,23.30
2017-07-23T10:01:42.326Z,23.10
2017-07-23T10:04:11.170Z,23.10
2017-07-23T10:06:40.067Z,23.30
2017-07-23T10:09:08.938Z,22.60
2017-07-23T10:11:37.809Z,22.30
2017-07-23T10:14:07.964Z,23.10
2017-07-23T10:16:36.425Z,24.00
2017-07-23T10:19:05.268Z,24.70
2017-07-23T10:21:34.261Z,27.00
2017-07-23T10:24:02.890Z,27.50
2017-07-23T10:26:32.462Z,27.40
2017-07-23T10:29:01.741Z,25.50
2017-07-23T10:31:30.277Z,25.20
2017-07-23T10:33:59.988Z,25.80
2017-07-23T10:36:28.465Z,26.00
2017-07-23T10:38:57.420Z,25.90
2017-07-23T10:43:56.537Z,26.60
2017-07-23T10:46:25.405Z,26.90
2017-07-23T10:48:54.264Z,27.00
2017-07-23T10:51:23.535Z,26.70
2017-07-23T10:53:52.956Z,26.40
2017-07-23T11:01:20.676Z,24.90
2017-07-23T11:03:50.264Z,25.20
2017-07-23T11:06:19.252Z,24.80
2017-07-23T11:11:18.609Z,24.20
2017-07-23T11:13:48.496Z,25.50
2017-07-23T11:16:17.181Z,26.10
2017-07-23T11:18:47.198Z,25.90
2017-07-23T11:21:16.876Z,25.40
2017-07-23T11:23:46.110Z,25.10
2017-07-23T11:26:14.969Z,26.30
2017-07-23T11:28:44.578Z,28.20
2017-07-23T11:31:13.874Z,29.00
2017-07-23T11:33:42.725Z,28.70
2017-07-23T11:36:12.627Z,26.70
2017-07-23T11:38:43.228Z,26.20
2017-07-23T11:41:11.688Z,24.70
2017-07-23T11:43:40.523Z,24.00
2017-07-23T11:46:09.009Z,24.30
2017-07-23T11:48:38.228Z,26.00
2017-07-23T11:51:07.841Z,26.90
2017-07-23T11:53:36.373Z,26.80
2017-07-23T11:56:05.246Z,28.50
2017-07-23T11:58:33.842Z,30.30
2017-07-23T12:01:02.313Z,29.70
2017-07-23T12:03:32.543Z,29.10
2017-07-23T12:06:01.982Z,29.10
2017-07-23T12:08:30.479Z,30.30
2017-07-23T12:10:59.407Z,30.10
2017-07-23T12:13:28.320Z,31.10
2017-07-23T12:15:57.204Z,30.90
2017-07-23T12:18:26.280Z,28.60
2017-07-23T12:20:55.226Z,26.70
2017-07-23T12:23:24.812Z,25.60
2017-07-23T12:28:23.238Z,24.90
2017-07-23T12:30:52.289Z,24.00
2017-07-23T12:33:22.055Z,23.70
2017-07-23T12:35:50.926Z,23.70
2017-07-23T12:38:20.400Z,24.30
2017-07-23T12:43:19.702Z,24.00
2017-07-23T12:45:49.698Z,23.30
2017-07-23T12:48:22.179Z,23.00
2017-07-23T12:50:51.858Z,23.00
2017-07-23T12:53:21.960Z,23.40
2017-07-23T12:55:51.337Z,24.30
2017-07-23T12:58:20.586Z,25.50
2017-07-23T13:00:50.247Z,26.50
2017-07-23T13:03:20.781Z,27.50
2017-07-23T13:05:49.393Z,27.10
2017-07-23T13:08:18.377Z,26.30
2017-07-23T13:10:46.897Z,26.60
2017-07-23T13:15:45.833Z,27.50
2017-07-23T13:18:15.997Z,27.50
2017-07-23T13:20:45.427Z,29.50
2017-07-23T13:23:14.520Z,29.90
2017-07-23T13:25:43.791Z,31.20
2017-07-23T13:28:12.729Z,30.40
2017-07-23T13:30:47.584Z,27.90
2017-07-23T13:38:14.876Z,26.10
2017-07-23T13:40:43.817Z,26.80
2017-07-23T13:43:12.712Z,27.30
2017-07-23T13:45:41.634Z,27.10
2017-07-23T13:48:10.754Z,28.40
2017-07-23T13:50:39.280Z,28.70
2017-07-23T13:53:08.194Z,29.60
2017-07-23T13:55:37.177Z,30.00
2017-07-23T14:00:35.658Z,29.70
2017-07-23T14:03:04.601Z,28.70
2017-07-23T14:05:33.532Z,27.50
2017-07-23T14:08:02.152Z,26.90
2017-07-23T14:10:31.273Z,27.10
2017-07-23T14:13:00.218Z,27.30
2017-07-23T14:15:29.074Z,27.20
2017-07-23T14:17:58.923Z,26.50
2017-07-23T14:20:27.479Z,26.50
2017-07-23T14:22:58.975Z,26.10
2017-07-23T14:25:27.508Z,25.90
2017-07-23T14:27:56.932Z,26.40
2017-07-23T14:30:27.458Z,26.50
2017-07-23T14:32:56.702Z,26.00
2017-07-23T14:35:25.643Z,25.30
2017-07-23T14:37:54.317Z,25.10
2017-07-23T14:40:22.885Z,25.30
2017-07-23T14:42:51.628Z,24.90
2017-07-23T14:45:21.813Z,24.40
2017-07-23T14:47:51.179Z,24.00
2017-07-23T14:50:20.618Z,23.80
2017-07-23T14:52:49.139Z,23.40
2017-07-23T14:55:17.698Z,23.50
2017-07-23T14:57:47.723Z,23.30
2017-07-23T15:00:17.432Z,23.20
2017-07-23T15:02:46.330Z,23.70
2017-07-23T15:05:15.257Z,23.90
2017-07-23T15:07:44.187Z,23.80
2017-07-23T15:10:12.707Z,24.10
2017-07-23T15:12:42.814Z,24.00
2017-07-23T15:15:11.672Z,24.30
2017-07-23T15:17:40.571Z,24.50
2017-07-23T15:20:09.640Z,25.60
2017-07-23T15:25:07.535Z,25.30
2017-07-23T15:27:35.994Z,25.40
2017-07-23T15:30:05.620Z,24.80
2017-07-23T15:32:34.075Z,24.80
2017-07-23T15:35:02.520Z,24.70
2017-07-23T15:37:31.755Z,24.80
2017-07-23T15:40:00.597Z,24.80
2017-07-23T15:44:58.903Z,24.60
2017-07-23T15:47:27.401Z,24.00
2017-07-23T15:49:56.995Z,23.70
2017-07-23T15:52:26.992Z,23.70
2017-07-23T15:54:56.503Z,23.70
2017-07-23T15:59:55.742Z,23.90
2017-07-23T16:02:24.604Z,23.50
2017-07-23T16:04:53.460Z,23.80
2017-07-23T16:07:22.716Z,23.80
2017-07-23T16:09:51.165Z,23.90
2017-07-23T16:12:20.247Z,25.10
2017-07-23T16:14:49.135Z,25.70
2017-07-23T16:17:17.592Z,25.20
2017-07-23T16:22:16.284Z,24.50
2017-07-23T16:24:44.787Z,24.60
2017-07-23T16:27:14.432Z,24.70
2017-07-23T16:29:44.809Z,25.00
2017-07-23T16:37:13.104Z,26.00
2017-07-23T16:39:41.549Z,25.30
2017-07-23T16:42:11.209Z,24.50
2017-07-23T16:44:40.795Z,23.40
2017-07-23T16:47:10.385Z,22.60
2017-07-23T16:52:08.370Z,22.60
2017-07-23T16:54:37.787Z,22.90
2017-07-23T16:57:06.676Z,23.00
2017-07-23T17:02:05.622Z,23.60
2017-07-23T17:04:34.590Z,24.50
2017-07-23T17:07:03.445Z,25.00
2017-07-23T17:09:32.298Z,24.70
2017-07-23T17:12:01.187Z,24.30
2017-07-23T17:16:59.394Z,23.60
2017-07-23T17:19:29.344Z,22.90
2017-07-23T17:21:59.939Z,22.60
2017-07-23T17:26:58.212Z,23.00
2017-07-23T17:29:26.730Z,23.10
2017-07-23T17:34:24.640Z,22.60
2017-07-23T17:36:53.535Z,22.40
2017-07-23T17:39:22.373Z,22.30
2017-07-23T17:44:21.180Z,22.00
2017-07-23T17:46:50.411Z,21.70
2017-07-23T17:49:19.965Z,21.40
2017-07-23T17:51:48.419Z,21.30
2017-07-23T17:57:10.226Z,21.00
2017-07-23T17:59:39.821Z,20.90
2017-07-23T18:02:08.868Z,20.70
2017-07-23T18:04:38.507Z,20.60
2017-07-23T18:07:08.455Z,20.70
2017-07-23T18:09:37.675Z,20.60
2017-07-23T18:12:08.114Z,20.60
2017-07-23T18:14:37.166Z,20.60
2017-07-23T18:17:05.782Z,20.50
2017-07-23T18:19:35.760Z,20.50
2017-07-23T18:22:04.589Z,20.50
2017-07-23T18:24:33.486Z,20.40
2017-07-23T18:27:01.998Z,20.40
2017-07-23T18:29:31.957Z,20.30
2017-07-23T18:32:01.192Z,20.20
2017-07-23T18:34:30.842Z,20.20
2017-07-23T18:37:00.443Z,20.00
2017-07-23T18:41:59.968Z,19.60
2017-07-23T18:44:29.936Z,19.40
2017-07-23T18:46:59.889Z,19.20
2017-07-23T18:51:58.012Z,18.80
2017-07-23T18:54:27.998Z,18.60
2017-07-23T18:59:25.880Z,18.30
2017-07-23T19:01:54.772Z,18.10
2017-07-23T19:04:23.691Z,17.90
2017-07-23T19:06:52.908Z,17.90
2017-07-23T19:09:21.455Z,17.80
2017-07-23T19:11:49.922Z,17.70
2017-07-23T19:14:18.800Z,17.60
2017-07-23T19:16:48.272Z,17.60
2017-07-23T19:24:16.054Z,17.30
2017-07-23T19:26:44.923Z,17.10
2017-07-23T19:31:43.711Z,16.90
2017-07-23T19:34:12.617Z,16.80
2017-07-23T19:36:41.442Z,16.70
2017-07-23T19:39:10.291Z,16.50
2017-07-23T19:44:08.267Z,16.30
2017-07-23T19:46:37.156Z,16.10
2017-07-23T19:49:05.620Z,16.00
2017-07-23T19:51:35.631Z,15.80
2017-07-23T19:54:04.070Z,15.70
2017-07-23T19:56:34.033Z,15.60
2017-07-23T19:59:04.139Z,15.40
2017-07-23T20:04:02.587Z,15.30
2017-07-23T20:06:31.739Z,15.50
2017-07-23T20:09:01.202Z,15.60
2017-07-23T20:11:30.779Z,15.50
2017-07-23T20:13:59.257Z,15.40
2017-07-23T20:16:28.541Z,15.40
2017-07-23T20:18:57.400Z,15.20
2017-07-23T20:21:27.364Z,15.00
2017-07-23T20:26:25.882Z,14.80
2017-07-23T20:28:55.461Z,14.70
2017-07-23T20:31:25.494Z,14.60
2017-07-23T20:33:54.713Z,14.60
2017-07-23T20:36:23.568Z,14.50
2017-07-23T20:38:53.587Z,14.50
2017-07-23T20:41:23.204Z,14.50
2017-07-23T20:43:52.549Z,14.40
2017-07-23T20:46:22.513Z,14.40
2017-07-23T20:48:51.425Z,14.40
2017-07-23T20:51:19.884Z,14.20
2017-07-23T20:53:49.298Z,14.00
2017-07-23T20:56:17.791Z,13.80
2017-07-23T21:03:46.675Z,14.00
2017-07-23T21:06:15.156Z,14.10
2017-07-23T21:08:44.036Z,14.20
2017-07-23T21:11:12.934Z,14.10
2017-07-23T21:13:42.290Z,13.90
2017-07-23T21:16:10.740Z,13.90
2017-07-23T21:18:39.234Z,14.00
2017-07-23T21:26:06.891Z,13.80
2017-07-23T21:28:35.758Z,13.60
2017-07-23T21:31:05.717Z,13.60
2017-07-23T21:33:34.233Z,13.50
2017-07-23T21:36:02.746Z,13.60
2017-07-23T21:38:32.324Z,13.80
2017-07-23T21:41:00.812Z,13.70
2017-07-23T21:43:29.694Z,13.80
2017-07-23T21:45:59.687Z,13.80
2017-07-23T21:48:28.541Z,13.70
2017-07-23T21:50:57.040Z,13.50
2017-07-23T21:55:56.719Z,13.30
2017-07-23T22:00:55.154Z,13.50
2017-07-23T22:03:25.105Z,13.50
2017-07-23T22:05:54.114Z,13.60
2017-07-23T22:08:23.167Z,13.60
2017-07-23T22:10:52.509Z,13.60
2017-07-23T22:13:21.472Z,13.70
2017-07-23T22:15:50.695Z,13.70
2017-07-23T22:18:20.118Z,13.90
2017-07-23T22:20:49.393Z,14.00
2017-07-23T22:23:17.855Z,14.20
2017-07-23T22:25:47.836Z,14.20
2017-07-23T22:28:18.464Z,14.10
2017-07-23T22:30:48.472Z,14.00
2017-07-23T22:33:17.323Z,13.90
2017-07-23T22:35:46.182Z,13.80
2017-07-23T22:38:17.486Z,13.70
2017-07-23T22:40:45.984Z,13.70
2017-07-23T22:43:15.221Z,13.60
2017-07-23T22:45:43.715Z,13.50
2017-07-23T22:50:42.476Z,13.30
2017-07-23T22:53:11.191Z,13.10
2017-07-23T22:55:40.415Z,13.30
2017-07-23T22:58:08.859Z,13.20
2017-07-23T23:00:38.166Z,13.20
2017-07-23T23:10:36.442Z,13.00
2017-07-23T23:13:06.412Z,12.90
2017-07-23T23:15:36.092Z,12.70
2017-07-23T23:20:34.803Z,13.10
2017-07-23T23:23:03.263Z,13.20
2017-07-23T23:25:32.855Z,13.20
2017-07-23T23:28:03.356Z,13.10
2017-07-23T23:30:32.936Z,13.10
2017-07-23T23:33:01.803Z,13.00
2017-07-23T23:35:30.266Z,13.00
2017-07-23T23:38:00.251Z,13.10
2017-07-23T23:40:28.733Z,13.10
2017-07-23T23:42:57.187Z,13.20
2017-07-23T23:45:25.814Z,13.20
2017-07-23T23:47:54.679Z,13.00
2017-07-23T23:50:23.980Z,13.00
2017-07-23T23:52:52.432Z,12.90
2017-07-23T23:55:20.881Z,12.80
2017-07-23T23:57:50.876Z,12.70
